Time;durP1;ratioP1;P1;durP2;ratioP2;P2;SDS_P1;SDS_P2;PMS_P1;PMS_P2;Temp;Humidity;BMP_temperature;BMP_pressure;BME280_temperature;BME280_humidity;BME280_pressure;Samples;Min_cycle;Max_cycle;Signal;HPM_P1;HPM_P2
2021/03/02 00:00:54;;;;;;;34.57;16.03;;;;;;;-1.50;83.14;102600.19;5050983;28;20069;-74
2021/03/02 00:03:20;;;;;;;33.03;16.67;;;;;;;-1.51;82.97;102598.41;5050957;28;20042;-74
2021/03/02 00:05:47;;;;;;;50.73;19.03;;;;;;;-1.55;82.46;102598.94;5042522;28;20415;-74
2021/03/02 00:08:13;;;;;;;40.80;19.23;;;;;;;-1.52;83.61;102604.34;5029720;28;20037;-74
2021/03/02 00:10:42;;;;;;;93.77;22.10;;;;;;;-1.46;83.76;102599.66;5049960;28;20095;-74
2021/03/02 00:13:09;;;;;;;69.27;19.40;;;;;;;-1.41;83.18;102595.72;5032976;28;20033;-74
2021/03/02 00:15:34;;;;;;;45.47;19.03;;;;;;;-1.38;83.84;102592.47;5031478;28;20032;-74
2021/03/02 00:18:01;;;;;;;48.07;20.57;;;;;;;-1.37;83.36;102591.66;5050740;28;20410;-74
2021/03/02 00:20:27;;;;;;;51.80;20.23;;;;;;;-1.34;84.00;102592.81;5050743;28;20083;-74
2021/03/02 00:22:56;;;;;;;51.20;21.23;;;;;;;-1.47;82.90;102584.88;5050803;28;20442;-74
2021/03/02 00:25:25;;;;;;;35.03;18.07;;;;;;;-1.47;83.96;102578.81;5032645;28;20406;-74
2021/03/02 00:27:54;;;;;;;40.53;18.87;;;;;;;-1.45;84.32;102582.44;5032737;28;20041;-74
2021/03/02 00:30:20;;;;;;;34.57;17.77;;;;;;;-1.38;83.62;102579.53;5050687;28;20079;-74
2021/03/02 00:32:46;;;;;;;39.90;17.83;;;;;;;-1.37;83.30;102586.50;5024630;28;20120;-74
2021/03/02 00:35:12;;;;;;;31.20;18.33;;;;;;;-1.36;84.34;102584.03;5050374;28;20044;-74
2021/03/02 00:37:37;;;;;;;72.17;18.63;;;;;;;-1.37;83.27;102589.97;5050503;28;20029;-74
2021/03/02 00:40:03;;;;;;;28.40;14.87;;;;;;;-1.38;83.57;102584.69;5050592;28;20029;-74
2021/03/02 00:42:29;;;;;;;39.63;17.67;;;;;;;-1.36;83.64;102584.03;5050318;28;20056;-74
2021/03/02 00:44:54;;;;;;;42.23;17.23;;;;;;;-1.50;83.75;102584.66;5050582;28;20525;-74
2021/03/02 00:47:19;;;;;;;37.47;15.30;;;;;;;-1.51;84.44;102585.47;5050191;28;20406;-74
2021/03/02 00:49:46;;;;;;;36.43;18.47;;;;;;;-1.51;84.47;102588.03;5032599;28;20395;-75
2021/03/02 00:52:12;;;;;;;48.93;15.80;;;;;;;-1.46;83.80;102591.88;5032755;28;20033;-75
2021/03/02 00:54:37;;;;;;;31.30;14.80;;;;;;;-1.46;83.37;102589.28;5032450;28;20182;-74
2021/03/02 00:57:03;;;;;;;39.30;17.03;;;;;;;-1.64;84.33;102590.50;5034740;28;20032;-75
2021/03/02 00:59:28;;;;;;;71.57;20.07;;;;;;;-1.80;83.57;102586.72;5054012;28;20043;-75
2021/03/02 01:01:55;;;;;;;37.43;16.53;;;;;;;-1.86;83.94;102588.88;5036112;28;20060;-75
2021/03/02 01:04:21;;;;;;;23.73;14.70;;;;;;;-1.87;84.00;102593.91;5053953;28;20033;-74
2021/03/02 01:06:48;;;;;;;23.83;14.90;;;;;;;-1.92;84.58;102580.59;5035801;28;20033;-74
2021/03/02 01:09:13;;;;;;;24.80;14.73;;;;;;;-1.99;84.48;102586.13;5053794;28;20037;-74
2021/03/02 01:11:42;;;;;;;33.30;16.03;;;;;;;-1.94;85.32;102582.16;5035805;28;20029;-74
2021/03/02 01:14:10;;;;;;;36.53;15.17;;;;;;;-1.86;84.55;102580.16;5035943;28;20065;-75
2021/03/02 01:16:35;;;;;;;21.57;13.73;;;;;;;-1.81;84.70;102577.19;5053169;28;20069;-74
2021/03/02 01:19:00;;;;;;;26.97;15.53;;;;;;;-1.65;84.18;102584.44;5035838;28;20123;-74
2021/03/02 01:21:26;;;;;;;23.80;12.37;;;;;;;-1.62;83.40;102586.34;5053561;28;20075;-74
2021/03/02 01:23:51;;;;;;;42.93;14.63;;;;;;;-1.63;83.76;102577.66;5035600;28;20041;-74
2021/03/02 01:26:16;;;;;;;57.80;15.70;;;;;;;-1.63;83.92;102577.66;5035448;28;20037;-74
2021/03/02 01:28:42;;;;;;;37.73;15.77;;;;;;;-1.70;84.00;102569.28;5053522;28;20072;-74
2021/03/02 01:31:07;;;;;;;37.47;17.17;;;;;;;-1.58;85.05;102572.81;5053453;28;20040;-74
2021/03/02 01:33:33;;;;;;;70.63;18.67;;;;;;;-1.45;84.77;102572.97;5053391;28;20025;-74
2021/03/02 01:35:58;;;;;;;39.37;14.50;;;;;;;-1.40;84.75;102576.78;5053159;28;20036;-75
2021/03/02 01:38:23;;;;;;;107.37;20.33;;;;;;;-1.28;84.17;102570.72;5053375;28;20499;-74
2021/03/02 01:40:49;;;;;;;44.00;13.53;;;;;;;-1.22;83.15;102582.47;5053255;28;20037;-75
2021/03/02 01:43:15;;;;;;;65.30;16.17;;;;;;;-1.15;83.52;102573.47;5053235;28;20222;-74
2021/03/02 01:45:40;;;;;;;68.10;15.83;;;;;;;-1.03;82.82;102571.75;5074074;22;20088;-69
2021/03/02 01:48:06;;;;;;;105.50;16.33;;;;;;;-0.98;82.98;102573.00;5052942;28;20060;-69
2021/03/02 01:50:33;;;;;;;50.00;15.93;;;;;;;-0.97;82.79;102566.09;5035332;28;20460;-70
2021/03/02 01:52:58;;;;;;;56.83;16.20;;;;;;;-1.06;82.08;102558.56;5053280;28;20073;-70
2021/03/02 01:55:23;;;;;;;78.30;16.07;;;;;;;-1.18;82.89;102552.47;5052757;28;20491;-69
2021/03/02 01:57:48;;;;;;;58.37;15.73;;;;;;;-1.21;82.67;102557.44;5053211;28;20033;-70
2021/03/02 02:00:31;;;;;;;82.13;16.67;;;;;;;-1.25;82.78;102560.59;5053136;28;20049;-69
2021/03/02 02:03:08;;;;;;;55.63;15.23;;;;;;;-1.31;82.14;102555.88;5046179;28;20175;-70
2021/03/02 02:05:40;;;;;;;51.00;13.60;;;;;;;-1.28;82.53;102555.19;5052630;28;20099;-70
2021/03/02 02:08:07;;;;;;;;;;;;;;;-1.32;82.95;102559.25;5052761;28;20051;-70
2021/03/02 02:10:43;;;;;;;59.13;13.07;;;;;;;-1.28;82.49;102550.00;5052831;28;19913;-70
2021/03/02 02:13:19;;;;;;;25.90;11.60;;;;;;;-1.32;81.92;102556.66;5052916;28;20373;-70
2021/03/02 02:15:47;;;;;;;47.43;14.77;;;;;;;-1.43;81.98;102555.84;5052445;28;20558;-70
2021/03/02 02:18:21;;;;;;;44.23;13.90;;;;;;;-1.51;82.93;102543.13;5052747;28;20048;-70
2021/03/02 02:21:03;;;;;;;40.13;12.87;;;;;;;-1.56;82.08;102541.09;5044707;28;20115;-70
2021/03/02 02:23:34;;;;;;;25.97;12.67;;;;;;;-1.60;83.02;102543.31;5052643;28;20063;-70
2021/03/02 02:26:17;;;;;;;24.40;11.30;;;;;;;-1.55;82.21;102545.50;5052242;28;20044;-70
2021/03/02 02:28:44;;;;;;;32.50;11.53;;;;;;;-1.51;82.83;102541.44;5052574;28;20044;-70
2021/03/02 02:31:11;;;;;;;36.83;12.00;;;;;;;-1.54;82.41;102546.38;5052506;28;20064;-70
2021/03/02 02:33:39;;;;;;;38.17;12.27;;;;;;;-1.60;81.56;102540.72;5052397;28;20075;-70
2021/03/02 02:36:08;;;;;;;21.07;10.80;;;;;;;-1.63;82.38;102540.50;5052121;28;20033;-69
2021/03/02 02:38:36;;;;;;;66.10;15.80;;;;;;;-1.60;82.37;102546.84;5052252;28;20124;-70
2021/03/02 02:41:02;;;;;;;26.00;10.37;;;;;;;-1.61;82.08;102538.94;5052239;28;20483;-70
2021/03/02 02:43:28;;;;;;;65.63;13.20;;;;;;;-1.70;82.09;102549.50;5052214;28;20571;-69
2021/03/02 02:45:55;;;;;;;56.43;13.23;;;;;;;-1.70;82.39;102553.75;5051728;28;20120;-70
2021/03/02 02:48:21;;;;;;;25.40;10.97;;;;;;;-1.70;82.40;102548.59;5052164;28;20040;-69
2021/03/02 02:50:48;;;;;;;77.77;16.63;;;;;;;-1.71;82.56;102552.88;5043986;28;20043;-70
2021/03/02 02:53:15;;;;;;;51.17;13.17;;;;;;;-1.83;82.63;102551.97;5051950;28;20036;-70
2021/03/02 02:55:44;;;;;;;85.73;15.63;;;;;;;-1.88;83.73;102549.00;5051724;28;20032;-70
2021/03/02 02:58:12;;;;;;;68.23;15.53;;;;;;;-1.91;82.79;102550.44;5051969;28;20032;-70
2021/03/02 03:00:39;;;;;;;60.33;12.53;;;;;;;-1.94;83.12;102543.34;5051905;28;20029;-70
2021/03/02 03:03:08;;;;;;;52.43;12.53;;;;;;;-2.10;84.33;102542.97;5051816;28;20502;-70
2021/03/02 03:05:35;;;;;;;73.30;15.07;;;;;;;-1.98;84.51;102543.91;5051415;28;20045;-70
2021/03/02 03:08:12;;;;;;;64.83;13.13;;;;;;;-1.95;83.37;102538.06;5051695;28;20076;-70
2021/03/02 03:10:38;;;;;;;99.50;12.80;;;;;;;-2.02;83.32;102549.63;5051720;28;20036;-70
2021/03/02 03:13:06;;;;;;;67.93;12.23;;;;;;;-2.06;84.35;102551.09;5051357;28;20040;-70
2021/03/02 03:15:36;;;;;;;54.73;12.97;;;;;;;-2.03;84.20;102542.66;5051269;28;20147;-70
2021/03/02 03:18:06;;;;;;;41.57;11.47;;;;;;;-1.96;84.72;102554.41;5051362;28;20044;-70
2021/03/02 03:20:31;;;;;;;42.10;11.60;;;;;;;-1.88;83.91;102550.72;5051473;28;20491;-70
2021/03/02 03:22:58;;;;;;;41.57;11.67;;;;;;;-1.85;83.39;102554.41;5051445;28;20040;-70
2021/03/02 03:25:23;;;;;;;27.23;11.30;;;;;;;-1.88;83.87;102551.59;5051044;28;20036;-70
2021/03/02 03:27:58;;;;;;;63.07;13.80;;;;;;;-1.89;83.96;102556.66;5051470;28;20064;-70
2021/03/02 03:30:25;;;;;;;35.00;10.23;;;;;;;-1.92;83.88;102562.47;5051367;28;20037;-69
2021/03/02 03:32:56;;;;;;;35.57;10.80;;;;;;;-1.94;83.55;102561.47;5051207;28;20528;-70
2021/03/02 03:35:24;;;;;;;90.73;13.50;;;;;;;-1.85;83.92;102563.88;5051180;28;20407;-70
2021/03/02 03:37:49;;;;;;;34.57;12.63;;;;;;;-1.73;83.72;102556.13;5051204;28;20033;-70
2021/03/02 03:40:15;;;;;;;52.07;13.07;;;;;;;-1.69;83.78;102563.34;5051149;28;20090;-69
2021/03/02 03:42:40;;;;;;;37.53;13.03;;;;;;;-1.65;83.03;102567.97;5033280;28;20041;-70
2021/03/02 03:45:06;;;;;;;43.57;12.43;;;;;;;-1.59;82.91;102563.25;5050711;28;20037;-70
2021/03/02 03:47:32;;;;;;;45.57;12.87;;;;;;;-1.53;83.13;102563.72;5051333;28;20033;-70
2021/03/02 03:49:57;;;;;;;23.77;11.87;;;;;;;-1.47;82.41;102564.16;5051067;28;20491;-69
2021/03/02 03:52:23;;;;;;;46.73;12.17;;;;;;;-1.34;82.81;102566.00;5050923;28;20037;-70
2021/03/02 03:54:50;;;;;;;46.33;14.47;;;;;;;-1.36;83.16;102560.72;5050969;28;20037;-70
2021/03/02 03:57:16;;;;;;;80.50;15.43;;;;;;;-1.36;82.57;102557.22;5050892;28;20127;-70
2021/03/02 03:59:43;;;;;;;50.77;11.30;;;;;;;-1.38;82.45;102554.50;5050950;28;20123;-69
2021/03/02 04:02:09;;;;;;;42.80;13.93;;;;;;;-1.47;82.38;102553.81;5051113;28;20468;-70
2021/03/02 04:04:37;;;;;;;35.63;12.70;;;;;;;-1.38;82.73;102548.44;5050963;28;20108;-70
2021/03/02 04:07:03;;;;;;;30.00;12.50;;;;;;;-1.24;83.09;102554.63;5050703;28;20060;-70
2021/03/02 04:09:29;;;;;;;33.43;11.87;;;;;;;-1.31;82.48;102545.53;5050930;28;20076;-70
2021/03/02 04:11:55;;;;;;;20.27;11.33;;;;;;;-1.34;82.21;102545.25;5050830;28;20041;-70
2021/03/02 04:14:20;;;;;;;35.90;12.10;;;;;;;-1.34;81.83;102545.25;5048936;28;20039;-70
2021/03/02 04:16:46;;;;;;;25.13;11.53;;;;;;;-1.24;82.45;102536.50;5049966;28;20028;-70
2021/03/02 04:19:11;;;;;;;44.87;15.43;;;;;;;-1.20;81.66;102542.03;5048284;28;20037;-70
2021/03/02 04:21:36;;;;;;;56.03;13.60;;;;;;;-1.16;81.69;102532.78;5050574;28;20029;-70
2021/03/02 04:24:02;;;;;;;28.87;12.63;;;;;;;-1.25;81.43;102535.59;5050819;28;20067;-70
2021/03/02 04:26:27;;;;;;;54.93;11.00;;;;;;;-1.28;81.11;102550.91;5050508;28;20043;-70
2021/03/02 04:28:52;;;;;;;45.97;10.33;;;;;;;-1.33;80.96;102547.97;5050751;28;20086;-70
2021/03/02 04:31:18;;;;;;;82.40;13.50;;;;;;;-1.37;81.28;102553.72;5052019;28;20044;-70
2021/03/02 04:33:43;;;;;;;38.80;11.70;;;;;;;-1.38;81.74;102557.09;5054575;28;20076;-70
2021/03/02 04:36:09;;;;;;;26.10;11.13;;;;;;;-1.26;81.49;102559.69;5054234;28;20033;-70
2021/03/02 04:38:35;;;;;;;38.87;13.20;;;;;;;-1.27;81.91;102562.19;5054648;28;20041;-70
2021/03/02 04:41:01;;;;;;;31.73;10.77;;;;;;;-1.17;81.88;102556.91;5054567;28;20407;-69
2021/03/02 04:43:26;;;;;;;18.00;9.30;;;;;;;-1.18;81.34;102556.00;5054518;28;20035;-70
2021/03/02 04:45:51;;;;;;;85.17;12.37;;;;;;;-1.15;80.62;102557.91;5054038;28;20074;-69
2021/03/02 04:48:17;;;;;;;41.60;10.43;;;;;;;-1.21;80.97;102565.22;5051267;28;20522;-70
2021/03/02 04:50:42;;;;;;;65.20;10.70;;;;;;;-1.36;80.47;102563.31;5054004;28;20032;-70
2021/03/02 04:53:07;;;;;;;34.97;11.83;;;;;;;-1.38;81.32;102564.88;5054093;28;20482;-70
2021/03/02 04:55:33;;;;;;;40.37;9.33;;;;;;;-1.41;81.08;102561.16;5053944;28;20044;-70
2021/03/02 04:57:58;;;;;;;65.37;13.17;;;;;;;-1.47;80.85;102560.69;5054513;28;20395;-70
2021/03/02 05:00:24;;;;;;;39.57;10.80;;;;;;;-1.41;81.15;102564.66;5054117;28;20428;-70
2021/03/02 05:02:49;;;;;;;47.87;11.70;;;;;;;-1.46;81.48;102559.91;5054178;28;20020;-70
2021/03/02 05:05:15;;;;;;;26.23;11.03;;;;;;;-1.45;82.01;102566.88;5053643;28;20048;-70
2021/03/02 05:07:40;;;;;;;24.67;11.13;;;;;;;-1.35;82.24;102565.09;5054026;28;20040;-70
2021/03/02 05:10:06;;;;;;;43.07;12.53;;;;;;;-1.26;81.84;102559.69;5053899;28;20044;-70
2021/03/02 05:12:31;;;;;;;32.97;10.63;;;;;;;-1.16;81.92;102556.09;5053726;28;20037;-70
2021/03/02 05:14:56;;;;;;;24.07;10.43;;;;;;;-1.23;81.58;102557.34;5053670;28;20044;-70
2021/03/02 05:17:22;;;;;;;20.40;10.53;;;;;;;-1.15;81.65;102558.81;5053446;28;20045;-70
2021/03/02 05:19:47;;;;;;;29.63;10.83;;;;;;;-1.06;82.33;102562.84;5053618;28;20037;-71
2021/03/02 05:22:12;;;;;;;21.40;9.47;;;;;;;-0.95;81.67;102568.03;5053729;28;20044;-68
2021/03/02 05:24:38;;;;;;;47.23;11.23;;;;;;;-0.96;81.06;102554.97;5035624;28;20123;-68
2021/03/02 05:27:04;;;;;;;57.73;11.53;;;;;;;-1.02;80.58;102552.84;5053363;28;20045;-68
2021/03/02 05:29:29;;;;;;;39.33;11.63;;;;;;;-1.08;81.22;102562.72;5053267;28;20040;-68
2021/03/02 05:31:54;;;;;;;24.97;11.07;;;;;;;-1.00;81.56;102552.94;5053456;28;20059;-68
2021/03/02 05:34:19;;;;;;;33.40;11.00;;;;;;;-0.95;80.83;102567.13;5053253;28;20087;-68
2021/03/02 05:36:45;;;;;;;28.97;9.20;;;;;;;-0.97;81.41;102561.84;5053083;28;20036;-67
2021/03/02 05:39:10;;;;;;;46.20;10.23;;;;;;;-0.97;81.26;102563.50;5053401;28;20090;-68
2021/03/02 05:41:36;;;;;;;35.80;9.70;;;;;;;-1.04;80.25;102563.88;5053318;28;20037;-68
2021/03/02 05:44:02;;;;;;;48.13;11.60;;;;;;;-1.18;80.69;102563.78;5052148;28;20486;-68
2021/03/02 05:46:28;;;;;;;63.93;11.33;;;;;;;-1.29;80.85;102563.75;5052761;28;20116;-68
2021/03/02 05:48:53;;;;;;;88.37;12.80;;;;;;;-1.28;80.73;102565.53;5053184;28;20492;-68
2021/03/02 05:51:19;;;;;;;42.47;14.50;;;;;;;-1.39;82.25;102557.91;5053084;28;20037;-67
2021/03/02 05:53:45;;;;;;;40.13;13.53;;;;;;;-1.28;82.63;102565.53;5052969;28;20474;-67
2021/03/02 05:56:11;;;;;;;49.83;12.33;;;;;;;-1.20;82.09;102564.44;5052778;28;20461;-68
2021/03/02 05:58:36;;;;;;;41.07;11.90;;;;;;;-1.26;82.19;102564.88;5052951;28;20029;-68
2021/03/02 06:01:03;;;;;;;59.47;30.43;;;;;;;-1.23;82.61;102562.53;5052875;28;20483;-68
2021/03/02 06:03:28;;;;;;;27.90;14.80;;;;;;;-1.04;81.85;102557.00;5052871;28;20021;-68
2021/03/02 06:05:54;;;;;;;44.13;11.87;;;;;;;-0.88;80.69;102554.72;5052591;28;20037;-68
2021/03/02 06:08:20;;;;;;;32.13;11.00;;;;;;;-1.00;81.33;102559.00;5052732;28;20044;-68
2021/03/02 06:10:45;;;;;;;70.03;11.10;;;;;;;-1.01;80.82;102572.78;5052776;28;20037;-68
2021/03/02 06:13:11;;;;;;;36.73;9.33;;;;;;;-1.05;80.15;102575.91;5052632;28;20043;-68
2021/03/02 06:15:53;;;;;;;81.73;10.77;;;;;;;-1.16;80.90;102576.81;5052296;28;20130;-68
2021/03/02 06:18:19;;;;;;;37.17;9.02;;;;;;;-1.20;81.06;102575.69;5052726;28;20179;-68
2021/03/02 06:20:45;;;;;;;36.80;9.23;;;;;;;-1.16;80.91;102571.63;5052567;28;20033;-68
2021/03/02 06:23:20;;;;;;;41.30;10.13;;;;;;;-1.06;81.06;102571.53;5052595;28;20073;-68
2021/03/02 06:25:47;;;;;;;45.27;10.30;;;;;;;-1.01;80.31;102575.38;5052216;28;20126;-68
2021/03/02 06:28:12;;;;;;;28.83;10.13;;;;;;;-1.02;80.89;102570.97;5052504;28;20189;-68
2021/03/02 06:30:38;;;;;;;19.53;10.27;;;;;;;-0.96;81.29;102573.13;5052444;28;20179;-68
2021/03/02 06:33:03;;;;;;;57.23;15.10;;;;;;;-0.80;80.68;102575.13;5052238;28;20044;-68
2021/03/02 06:35:42;;;;;;;48.97;12.33;;;;;;;-0.77;79.46;102570.16;5051933;28;20043;-68
2021/03/02 06:38:08;;;;;;;37.43;11.27;;;;;;;-0.63;80.86;102578.94;5052334;28;20040;-68
2021/03/02 06:40:39;;;;;;;40.67;12.40;;;;;;;-0.65;79.74;102572.75;5052111;28;20033;-68
2021/03/02 06:43:05;;;;;;;29.83;10.60;;;;;;;-0.45;80.33;102572.47;5052121;28;20041;-68
2021/03/02 06:45:30;;;;;;;43.83;11.43;;;;;;;-0.35;79.19;102574.03;5051630;28;20094;-68
2021/03/02 06:48:06;;;;;;;30.60;11.10;;;;;;;-0.26;78.65;102573.00;5054129;28;20090;-68
2021/03/02 06:50:38;;;;;;;36.97;11.70;;;;;;;-0.21;77.98;102573.28;5051900;28;20044;-68
2021/03/02 06:53:11;;;;;;;45.08;12.00;;;;;;;-0.36;78.60;102574.81;5051852;28;20041;-68
2021/03/02 06:55:38;;;;;;;64.70;12.97;;;;;;;-0.35;78.01;102581.81;5051367;28;20403;-68
2021/03/02 06:58:20;;;;;;;42.50;13.00;;;;;;;-0.38;78.42;102581.59;5051920;28;20041;-68
2021/03/02 07:00:51;;;;;;;33.33;12.17;;;;;;;-0.27;78.52;102578.94;5051859;28;20102;-68
2021/03/02 07:03:28;;;;;;;45.27;13.17;;;;;;;-0.12;78.78;102573.06;5051644;28;20033;-68
2021/03/02 07:05:56;;;;;;;28.67;12.70;;;;;;;-0.04;78.49;102572.78;5044259;28;20064;-68
2021/03/02 07:08:22;;;;;;;47.93;14.80;;;;;;;-0.02;78.02;102576.38;5051664;28;20497;-68
2021/03/02 07:10:53;;;;;;;38.97;13.33;;;;;;;-0.15;79.36;102583.22;5051681;28;20045;-68
2021/03/02 07:13:19;;;;;;;49.53;13.23;;;;;;;-0.02;78.22;102576.38;5051659;28;20444;-68
2021/03/02 07:15:46;;;;;;;46.20;13.73;;;;;;;0.04;77.52;102580.22;5051274;28;20119;-68
2021/03/02 07:18:15;;;;;;;87.43;15.03;;;;;;;-0.09;77.91;102583.63;5051444;28;20029;-68
2021/03/02 07:20:47;;;;;;;61.80;14.27;;;;;;;-0.35;78.35;102584.41;5051494;28;20041;-68
2021/03/02 07:23:15;;;;;;;43.03;15.13;;;;;;;-0.38;79.27;102594.56;5051172;28;20052;-68
2021/03/02 07:25:43;;;;;;;26.33;12.87;;;;;;;-0.26;80.53;102590.25;5051066;28;20087;-68
2021/03/02 07:28:10;;;;;;;39.87;12.37;;;;;;;0.06;79.60;102592.50;5051376;28;20044;-68
2021/03/02 07:30:36;;;;;;;24.03;12.67;;;;;;;0.23;79.28;102591.06;5051119;28;20144;-68
2021/03/02 07:33:01;;;;;;;44.27;12.33;;;;;;;0.43;78.52;102598.50;5051177;28;20119;-68
2021/03/02 07:35:27;;;;;;;47.00;13.53;;;;;;;0.31;78.47;102592.47;5051077;28;20037;-68
2021/03/02 07:38:11;;;;;;;39.40;12.40;;;;;;;0.42;78.24;102586.34;5051248;28;20029;-68
2021/03/02 07:40:52;;;;;;;68.10;13.17;;;;;;;0.45;76.39;102583.03;5047026;28;20033;-68
2021/03/02 07:43:27;;;;;;;23.03;11.20;;;;;;;0.40;77.64;102595.72;5047046;28;20036;-68
2021/03/02 07:45:54;;;;;;;56.33;13.30;;;;;;;0.39;76.95;102593.94;5048982;28;20052;-68
2021/03/02 07:48:28;;;;;;;57.87;12.17;;;;;;;0.46;76.98;102589.13;5051092;28;20537;-68
2021/03/02 07:51:13;;;;;;;35.97;12.03;;;;;;;0.45;78.17;102601.22;5049470;28;20090;-68
2021/03/02 07:53:40;;;;;;;26.87;13.23;;;;;;;0.61;77.42;102597.97;5051052;28;20033;-68
2021/03/02 07:56:23;;;;;;;42.00;13.60;;;;;;;0.74;77.99;102605.78;5050761;28;20099;-68
2021/03/02 07:59:10;;;;;;;40.17;11.97;;;;;;;0.92;76.89;102605.19;5043003;28;20060;-68
2021/03/02 08:01:36;;;;;;;21.40;10.63;;;;;;;0.94;77.35;102611.41;5085879;23;20046;-68
2021/03/02 08:04:13;;;;;;;40.97;12.67;;;;;;;0.95;76.64;102603.72;5050699;28;20442;-68
2021/03/02 08:06:40;;;;;;;29.43;12.00;;;;;;;1.15;76.20;102609.31;5052319;28;20041;-68
2021/03/02 08:09:26;;;;;;;33.75;11.40;;;;;;;1.18;75.86;102609.50;5054984;28;20041;-68
2021/03/02 08:11:55;;;;;;;23.92;11.70;;;;;;;1.30;75.80;102603.41;5047323;28;20029;-68
2021/03/02 08:14:20;;;;;;;27.57;12.53;;;;;;;1.31;75.83;102607.81;5052672;28;20037;-68
2021/03/02 08:17:06;;;;;;;32.25;13.07;;;;;;;1.51;74.40;102605.59;5054236;28;20098;-68
2021/03/02 08:19:43;;;;;;;26.15;12.30;;;;;;;1.75;76.02;102606.22;5054541;28;20028;-68
2021/03/02 08:22:22;;;;;;;22.38;11.25;;;;;;;1.90;74.72;102593.28;5053101;28;20028;-68
2021/03/02 08:24:49;;;;;;;23.05;10.00;;;;;;;1.95;74.17;102599.69;5052416;28;20169;-68
2021/03/02 08:27:14;;;;;;;26.48;11.65;;;;;;;2.01;74.62;102599.16;5054429;28;20040;-67
2021/03/02 08:29:50;;;;;;;28.48;11.70;;;;;;;2.02;73.65;102603.53;5054602;28;20040;-68
2021/03/02 08:32:17;;;;;;;20.50;10.95;;;;;;;2.05;74.19;102607.25;5054210;28;20522;-68
2021/03/02 08:34:43;;;;;;;19.42;11.50;;;;;;;2.14;74.48;102593.88;5054462;28;20087;-68
2021/03/02 08:37:09;;;;;;;21.70;11.50;;;;;;;2.33;74.37;102603.72;5054329;28;20037;-68
2021/03/02 08:39:34;;;;;;;23.02;11.57;;;;;;;2.49;73.87;102596.03;5054354;28;20055;-68
2021/03/02 08:42:05;;;;;;;29.88;12.27;;;;;;;2.50;72.27;102597.81;5054416;28;20111;-69
2021/03/02 08:44:30;;;;;;;45.30;13.77;;;;;;;2.32;72.62;102604.53;5054372;28;20029;-68
2021/03/02 08:46:56;;;;;;;35.65;11.55;;;;;;;2.29;72.87;102606.97;5053976;28;20044;-68
2021/03/02 08:49:22;;;;;;;27.73;11.50;;;;;;;2.19;73.04;102606.38;5054240;28;20040;-68
2021/03/02 08:51:48;;;;;;;18.17;10.98;;;;;;;2.22;73.28;102602.16;5045925;28;20045;-68
2021/03/02 08:54:14;;;;;;;25.95;12.48;;;;;;;2.31;73.44;102600.16;5054130;28;20154;-68
2021/03/02 08:56:40;;;;;;;19.05;11.82;;;;;;;2.26;73.28;102592.03;5053849;28;20056;-68
2021/03/02 08:59:10;;;;;;;19.75;11.90;;;;;;;2.47;73.49;102595.03;5054140;28;20658;-68
2021/03/02 09:01:40;;;;;;;43.65;13.27;;;;;;;2.31;72.59;102589.72;5053721;28;20060;-68
2021/03/02 09:04:16;;;;;;;31.67;13.02;;;;;;;2.38;73.29;102586.66;5054106;28;20041;-67
2021/03/02 09:06:43;;;;;;;27.02;12.85;;;;;;;2.65;72.88;102592.63;5036079;28;20122;-68
2021/03/02 09:09:11;;;;;;;20.02;12.38;;;;;;;2.83;73.15;102590.22;5053951;28;20037;-68
2021/03/02 09:11:47;;;;;;;21.48;13.57;;;;;;;2.98;72.36;102587.56;5053762;28;20029;-68
2021/03/02 09:14:15;;;;;;;19.20;12.68;;;;;;;3.34;71.33;102590.47;5053784;28;20123;-68
2021/03/02 09:16:52;;;;;;;28.52;14.50;;;;;;;3.29;70.16;102595.44;5053308;28;20487;-68
2021/03/02 09:19:25;;;;;;;19.92;12.68;;;;;;;3.24;70.50;102602.09;5053764;28;20387;-68
2021/03/02 09:21:52;;;;;;;17.83;12.27;;;;;;;3.54;70.56;102599.41;5051254;28;20033;-68
2021/03/02 09:24:19;;;;;;;41.13;16.90;;;;;;;3.42;70.32;102595.31;5053681;28;20059;-68
2021/03/02 09:27:01;;;;;;;52.83;14.80;;;;;;;3.41;69.48;102596.13;5053220;28;20044;-68
2021/03/02 09:29:29;;;;;;;35.03;14.32;;;;;;;3.42;69.49;102595.31;5053485;28;20075;-68
2021/03/02 09:31:57;;;;;;;27.88;15.32;;;;;;;3.15;70.81;102601.59;5053397;28;20132;-68
2021/03/02 09:34:29;;;;;;;21.90;15.57;;;;;;;3.44;70.92;102591.06;5053434;28;20029;-68
2021/03/02 09:36:56;;;;;;;29.92;16.33;;;;;;;3.60;70.94;102597.16;5053110;28;20040;-68
2021/03/02 09:39:26;;;;;;;40.65;16.35;;;;;;;3.41;70.03;102593.53;5053235;28;20041;-70
2021/03/02 09:41:52;;;;;;;21.50;14.10;;;;;;;3.22;72.33;102594.19;5046169;28;20040;-70
2021/03/02 09:44:29;;;;;;;22.77;15.48;;;;;;;3.50;71.61;102585.28;5053185;28;20479;-70
2021/03/02 09:46:58;;;;;;;24.90;16.23;;;;;;;3.66;71.20;102592.25;5045859;28;20028;-70
2021/03/02 09:49:59;;;;;;;26.42;15.02;;;;;;;3.72;70.36;102587.34;5035176;28;20037;-70
2021/03/02 09:52:36;;;;;;;26.75;17.13;;;;;;;3.67;71.18;102589.75;5009267;28;20080;-70
2021/03/02 09:55:19;;;;;;;23.95;16.40;;;;;;;3.64;71.52;102589.59;5053043;28;20128;-70
2021/03/02 09:57:58;;;;;;;22.38;15.75;;;;;;;3.84;71.67;102594.97;5052917;28;20036;-70
2021/03/02 10:00:33;;;;;;;21.65;15.20;;;;;;;4.21;70.87;102597.84;5052838;28;20098;-70
2021/03/02 10:03:09;;;;;;;23.73;15.25;;;;;;;4.28;69.96;102586.00;5053010;28;20029;-70
2021/03/02 10:05:36;;;;;;;21.20;14.40;;;;;;;4.50;70.04;102594.13;5052559;28;20037;-70
2021/03/02 10:08:20;;;;;;;22.02;15.15;;;;;;;4.66;69.29;102585.34;5052833;28;20049;-70
2021/03/02 10:10:46;;;;;;;21.92;15.07;;;;;;;4.84;69.37;102585.38;5052722;28;20123;-70
2021/03/02 10:13:11;;;;;;;22.90;16.27;;;;;;;4.76;69.28;102585.00;5052570;28;20563;-70
2021/03/02 10:15:37;;;;;;;26.08;16.88;;;;;;;4.77;69.71;102588.53;5052316;28;20033;-70
2021/03/02 10:18:22;;;;;;;30.02;20.33;;;;;;;4.72;68.90;102585.69;5052634;28;20811;-70
2021/03/02 10:21:07;;;;;;;32.30;21.00;;;;;;;4.54;69.42;102589.97;5038603;28;20041;-70
2021/03/02 10:23:39;;;;;;;35.08;21.83;;;;;;;4.60;69.47;102587.66;5052188;28;20154;-71
2021/03/02 10:26:05;;;;;;;32.90;22.15;;;;;;;4.67;69.05;102584.56;5047487;28;20039;-71
2021/03/02 10:28:32;;;;;;;27.10;18.50;;;;;;;4.65;68.59;102588.78;5051659;28;20096;-70
2021/03/02 10:30:57;;;;;;;29.17;20.40;;;;;;;4.66;68.40;102585.34;5052389;28;20039;-70
2021/03/02 10:33:23;;;;;;;25.50;18.75;;;;;;;4.61;69.13;102589.44;5052016;28;20542;-70
2021/03/02 10:35:48;;;;;;;31.50;21.85;;;;;;;4.68;69.32;102588.94;5052007;28;20432;-70
2021/03/02 10:38:14;;;;;;;34.88;22.20;;;;;;;5.03;69.01;102580.25;5052234;28;20108;-70
2021/03/02 10:40:39;;;;;;;31.20;21.30;;;;;;;5.39;67.75;102571.47;5051970;28;20494;-70
2021/03/02 10:43:05;;;;;;;30.23;21.23;;;;;;;5.72;65.92;102574.78;5034098;28;20040;-70
2021/03/02 10:45:30;;;;;;;27.42;18.52;;;;;;;5.66;67.46;102574.53;5051766;28;20040;-68
2021/03/02 10:47:55;;;;;;;24.52;18.10;;;;;;;5.76;67.09;102583.69;5051901;28;20103;-68
2021/03/02 10:50:21;;;;;;;26.85;20.40;;;;;;;5.88;66.34;102574.66;5051928;28;20037;-68
2021/03/02 10:52:46;;;;;;;25.73;17.83;;;;;;;6.04;67.02;102578.91;5051725;28;20045;-68
2021/03/02 10:55:11;;;;;;;29.13;20.65;;;;;;;6.06;66.43;102571.13;5051690;28;20090;-68
2021/03/02 10:57:37;;;;;;;29.30;21.23;;;;;;;5.72;65.75;102569.56;5051746;28;20032;-68
2021/03/02 11:00:04;;;;;;;28.90;21.02;;;;;;;5.59;66.86;102570.72;5051056;28;20079;-70
2021/03/02 11:02:29;;;;;;;27.67;19.73;;;;;;;5.36;67.47;102571.34;5048563;28;20044;-67
2021/03/02 11:04:54;;;;;;;28.65;21.02;;;;;;;5.10;68.28;102568.34;5050301;28;20497;-68
2021/03/02 11:07:20;;;;;;;29.65;21.30;;;;;;;5.11;68.68;102564.94;5051713;28;20043;-68
2021/03/02 11:09:45;;;;;;;29.98;21.17;;;;;;;5.14;68.46;102564.19;5051415;28;20036;-68
2021/03/02 11:12:11;;;;;;;29.65;22.95;;;;;;;5.03;69.18;102561.94;5048272;28;20033;-68
2021/03/02 11:14:36;;;;;;;31.75;22.33;;;;;;;5.04;69.78;102548.03;5051575;28;20048;-68
2021/03/02 11:17:01;;;;;;;29.70;21.95;;;;;;;5.01;70.16;102547.88;5051306;28;20041;-68